Johannesburg, MI

4:30 AM EDT on September 03, 2014 (GMT -0400)
Lake Louise | Change Station
CLOSE
Current Station
Personal Weather Station
Location: Johannesburg, MI
Elevation: 1358 ft
Nearby Weather Stations

Elev 1358 ft 44.98 °N, 84.49 °W | Updated 7 minutes ago

Clear
Clear
55.4 °F
Feels Like 55.4 °F
N
0.0
Wind Variable Wind from SE

Today
High -- | Low -- °F
--% Chance of Precip.
Yesterday
High -- | Low -- °F
Precip. -- in
7:02 AM 8:11 PM
First Quarter, 60% visible
Pressure 29.96 in
Visibility 10.0 miles
Clouds Clear
Dew Point 55 °F
Humidity 99%
Rainfall 0.00 in
Snow Depth Not available.
UV 0 out of 12
Pollen 8.80 out of 12
Ozone Good
PM2.5 Good
Flu Activity Not available.
METAR KGLR 030753Z AUTO 24006KT 10SM CLR 14/13 A2996 RMK AO2 SLP143 T01390128

More Conditions Fewer Conditions

Pressure 29.96 in
Visibility 10.0 miles
Clouds Clear
Dew Point 55 °F
Humidity 99%
Rainfall 0.00 in
Snow Depth Not available.
UV 0 out of 12
Pollen 8.80 out of 12
Ozone Good
PM2.5 Good
Flu Activity Not available.
METAR KGLR 030753Z AUTO 24006KT 10SM CLR 14/13 A2996 RMK AO2 SLP143 T01390128

More Conditions Fewer Conditions

Nowcast | as of 4:00 am EDT on September 3, 2014

At 5 am...mostly clear. Temperature 56. Southwest winds 6 mph. At 7 am...mostly clear. Temperature 57. Southwest winds 7 mph. At 9 am...mostly clear. Temperature 62. Southwest winds 7 mph. At 11 am...mostly clear. Temperature 72. Southwest winds 6 mph.

×

10-Day Weather Forecast

Almanac

Astronomy

Sep. 03, 2014 Rise Set
Actual Time 7:02 AM EDT 8:11 PM EDT
Civil Twilight 6:32 AM EDT 8:41 PM EDT
Nautical Twilight 5:55 AM EDT 9:17 PM EDT
Astronomical Twilight 5:17 AM EDT 9:55 PM EDT
Moon 4:00 PM EDT 12:47 AM EDT
Length of Visible Light 14h 09m
Length of Day
13h 08m
Tomorrow will be 3m 3s shorter.
First Quarter, 60% of the Moon is Illuminated
Today
First Quarter
Sep 8
Full
Sep 15
Last Quarter
Sep 24
New
Oct 1
First Quarter

Today's Extremes

State Highs State Lows

Community

WunderPhotos

Upload Photos

1,749,902 photos uploaded!

Nearby

Air Quality

  Air Quality AQ Index Pollutant
Yesterday Good
OZONE
Yesterday Good
PM2.5
Current Good
PM2.5
Current Good
OZONE
Wednesday Good
OZONE
Wednesday Good
PM2.5
Thursday Good
OZONE
Thursday Good
PM2.5
Friday Good
OZONE
Friday Good
PM2.5
Saturday Good
OZONE
Saturday Good
PM2.5
Sunday Good
OZONE
Sunday Good
PM2.5

Snow Depth

Station Depth Elevation
No new snow has been reported.

Earthquake Activity

City Distance Mag. Time & Date
No recent earthquake activity has been reported nearby.
Minimum magnitude displayed is 2.5.

Coastal Water Temperatures

Place Temperature
No Stations Reporting

Nearby Weather Stations